Ciudad del Carmen International Airport
MMCE : now visible

Airfield :











YOU CAN JOIN US ON...

 
LOGIN :

Register | Disclaimer

   EN    FR    IT 

 









Legend :    VFR   Marginal VFR   IFR   Intensive IFR   Very Intensive IFR
Visi :
Ceiling :
>= 8 km
>= 3000ft
5 to 8 km
1000 to 3000 ft
1500m to 5 km
500 to 1000 ft
800 to 1500m
200 to 500 ft
< 800m
< 200 ft
Symbols :   Thunderstorms  Fog  Heavy snow  Heavy precipitations  Wind > 20 kt






- Airport Elevation : 10 ft
- IATA code : CME


MMCE - Ciudad del Carmen International

CURRENT METAR :
  • 021252Z 11010KT 7SM FEW010 FEW080 27/24 A2992 RMK 8/570 CI

EXPIRED METARs :
  • 021154Z 09011KT 7SM FEW010 FEW070 27/24 A2989 RMK SLP119 5//// 900 8/570 CI
  • 021106Z RTD 09004KT 7SM FEW250 26/24 A2988 RMK 6//// 8/008 SC AC RTS

TAF TAF MMCE
Valid from the 02 at 06:00 until the 03 at 06:00 UTC


020324Z 0206/0306 12010KT P6SM VC RA BKN015 BKN070
FM021000 12010KT P6SM SCT015
TEMPO 0211/0215 BKN015
FM021800 12015KT P6SM SCT020 SCT070
FM022200 12015KT P6SM BKN020CB BKN080
TEMPO 0222/0302 3SM TSRA OVC010CB
MMFR FIR / North America



MET'MAP, your aeronautical weather chart ! - Copyright ORBIFLY December 2007 - Disclaimer

ORBIFLY MET'MAP TEAM :

Programming & Development : Alexandra Zaïnal
Concept & original design : Baudouin d'Aumeries
Assistance for programming : Marc-Olivier Méhu
Technical & hardware support : Manuel Goepfert

Contact : metmap@orbifly.com




SOURCES & CREDITS :

   NOAA       Earth
Advisory